Time;durP1;ratioP1;P1;durP2;ratioP2;P2;SDS_P1;SDS_P2;PMS_P1;PMS_P2;Temp;Humidity;BMP_temperature;BMP_pressure;BME280_temperature;BME280_humidity;BME280_pressure;Samples;Min_cycle;Max_cycle;Signal;HPM_P1;HPM_P2
2022/07/04 00:02:04;;;;;;;2.75;1.70;;;;;;;27.27;28.83;98963.22;4978347;28;20030;-68
2022/07/04 00:04:30;;;;;;;3.75;1.70;;;;;;;27.24;28.90;98955.59;4994549;28;20068;-68
2022/07/04 00:06:55;;;;;;;5.25;1.70;;;;;;;27.26;28.91;98956.22;4994551;28;20041;-69
2022/07/04 00:09:21;;;;;;;3.38;1.40;;;;;;;27.24;28.72;98950.25;5010822;28;20092;-68
2022/07/04 00:11:46;;;;;;;2.50;1.60;;;;;;;27.22;29.03;98954.22;4993929;28;20053;-69
2022/07/04 00:14:11;;;;;;;5.93;1.67;;;;;;;27.20;29.00;98959.78;5010691;28;20030;-68
2022/07/04 00:16:37;;;;;;;4.45;1.60;;;;;;;27.19;28.87;98960.81;4994748;28;20034;-68
2022/07/04 00:19:02;;;;;;;5.95;1.80;;;;;;;27.19;28.42;98960.81;5012093;28;20037;-68
2022/07/04 00:21:28;;;;;;;4.78;1.70;;;;;;;27.20;28.92;98953.59;4994866;28;20047;-68
2022/07/04 00:23:53;;;;;;;2.20;1.45;;;;;;;27.20;28.79;98950.91;5013481;28;20037;-69
2022/07/04 00:26:19;;;;;;;4.78;1.80;;;;;;;27.21;28.45;98953.38;4997836;28;20080;-69
2022/07/04 00:28:44;;;;;;;3.25;1.70;;;;;;;27.19;28.72;98951.97;4997836;28;20413;-69
2022/07/04 00:31:10;;;;;;;4.63;1.60;;;;;;;27.18;28.47;98950.31;5014379;28;20092;-69
2022/07/04 00:33:35;;;;;;;4.28;1.88;;;;;;;27.19;28.70;98947.41;4997574;28;20030;-69
2022/07/04 00:36:01;;;;;;;4.35;1.38;;;;;;;27.20;28.79;98941.03;5013885;28;20034;-68
2022/07/04 00:38:26;;;;;;;2.55;1.60;;;;;;;27.20;28.26;98948.22;4981322;28;20034;-68
2022/07/04 00:40:52;;;;;;;4.07;1.70;;;;;;;27.16;28.63;98944.38;4997556;28;20029;-69
2022/07/04 00:43:22;;;;;;;3.00;1.70;;;;;;;27.14;28.50;98936.53;4997910;28;20571;-68
2022/07/04 00:45:47;;;;;;;5.13;2.00;;;;;;;27.16;28.82;98944.38;4997654;28;20485;-68
2022/07/04 00:48:15;;;;;;;5.40;1.80;;;;;;;27.14;28.43;98941.91;5014917;28;20034;-68
2022/07/04 00:50:41;;;;;;;3.03;1.52;;;;;;;27.14;28.56;98941.09;4998167;28;20053;-69
2022/07/04 00:53:07;;;;;;;2.63;1.60;;;;;;;27.13;28.48;98942.94;5013775;28;20038;-68
2022/07/04 00:55:32;;;;;;;2.13;1.38;;;;;;;27.07;28.96;98931.25;5013358;28;20394;-68
2022/07/04 00:57:58;;;;;;;4.32;1.80;;;;;;;27.09;28.71;98936.41;4997006;28;20030;-68
2022/07/04 01:00:23;;;;;;;4.43;1.70;;;;;;;27.09;29.07;98936.41;4980934;28;20030;-68
2022/07/04 01:02:49;;;;;;;1.77;1.35;;;;;;;27.06;28.84;98934.16;4980990;28;20382;-68
2022/07/04 01:05:14;;;;;;;3.13;1.70;;;;;;;27.04;29.03;98926.34;4981045;28;20045;-68
2022/07/04 01:07:40;;;;;;;4.75;1.63;;;;;;;27.02;29.11;98924.91;5013448;28;20030;-68
2022/07/04 01:10:06;;;;;;;3.47;1.52;;;;;;;27.02;28.97;98922.22;5013318;28;20038;-68
2022/07/04 01:12:31;;;;;;;5.22;1.70;;;;;;;26.99;29.24;98922.66;5014166;28;20475;-68
2022/07/04 01:14:57;;;;;;;7.13;2.00;;;;;;;26.97;29.25;98906.00;4980784;28;20029;-67
2022/07/04 01:17:23;;;;;;;1.77;1.40;;;;;;;26.97;29.72;98903.31;5013055;28;20108;-68
2022/07/04 01:19:48;;;;;;;3.00;1.60;;;;;;;26.95;29.44;98898.19;4996729;28;20021;-69
2022/07/04 01:22:13;;;;;;;3.45;1.63;;;;;;;26.98;29.63;98899.59;5012996;28;20410;-67
2022/07/04 01:24:39;;;;;;;3.03;1.58;;;;;;;26.93;29.40;98892.25;4996691;28;20084;-69
2022/07/04 01:27:05;;;;;;;4.68;1.45;;;;;;;26.93;29.62;98894.06;4997059;28;20037;-69
2022/07/04 01:29:31;;;;;;;5.22;1.73;;;;;;;26.97;29.74;98895.28;4997464;28;20493;-68
2022/07/04 01:31:56;;;;;;;3.58;1.70;;;;;;;26.89;29.90;98883.78;4997177;28;20042;-69
2022/07/04 01:34:22;;;;;;;5.80;1.80;;;;;;;26.89;29.93;98883.78;4995548;28;20512;-68
2022/07/04 01:36:48;;;;;;;3.97;1.75;;;;;;;26.90;29.78;98887.31;5013142;28;20131;-68
2022/07/04 01:39:13;;;;;;;6.35;1.70;;;;;;;26.89;29.93;98885.66;4996620;28;20033;-69
2022/07/04 01:41:39;;;;;;;3.72;1.65;;;;;;;26.85;29.79;98882.63;5013244;28;20042;-69
2022/07/04 01:44:04;;;;;;;3.10;1.80;;;;;;;26.86;29.65;98894.13;4996317;28;20501;-69
2022/07/04 01:46:30;;;;;;;3.45;1.73;;;;;;;26.85;29.95;98897.84;4997136;28;20116;-70
2022/07/04 01:48:55;;;;;;;5.75;2.13;;;;;;;26.82;30.07;98891.09;5012815;28;20029;-68
2022/07/04 01:51:21;;;;;;;3.85;1.63;;;;;;;26.79;29.83;98893.38;5014076;28;20038;-68
2022/07/04 01:53:46;;;;;;;2.83;1.70;;;;;;;26.79;30.40;98899.56;4995960;28;20470;-68
2022/07/04 01:56:11;;;;;;;3.20;1.83;;;;;;;26.77;30.18;98893.56;4996815;28;20042;-68
2022/07/04 01:58:37;;;;;;;4.10;1.70;;;;;;;26.73;30.36;98884.38;4980020;28;20030;-68
2022/07/04 02:03:46;;;;;;;4.22;1.70;;;;;;;26.70;30.62;98893.63;4998724;28;20091;-68
2022/07/04 02:06:12;;;;;;;4.40;1.83;;;;;;;26.73;30.70;98892.41;4979718;28;20030;-68
2022/07/04 02:11:21;;;;;;;5.80;1.80;;;;;;;26.74;31.08;98891.38;4998809;28;20040;-67
2022/07/04 02:13:47;;;;;;;5.43;1.75;;;;;;;26.76;30.86;98891.97;5012470;28;20050;-68
2022/07/04 02:16:12;;;;;;;2.70;1.55;;;;;;;26.75;30.76;98889.50;5012969;28;20045;-68
2022/07/04 02:18:38;;;;;;;3.70;1.80;;;;;;;26.75;31.25;98889.50;5011990;28;20033;-68
2022/07/04 02:21:03;;;;;;;5.53;1.80;;;;;;;26.73;31.45;98892.41;5012095;28;20029;-68
2022/07/04 02:23:29;;;;;;;4.63;1.88;;;;;;;26.72;31.15;98893.41;5012118;28;20049;-69
2022/07/04 02:25:54;;;;;;;4.07;1.77;;;;;;;26.72;31.09;98896.09;5011940;28;20060;-68
2022/07/04 02:28:20;;;;;;;6.07;1.92;;;;;;;26.70;31.23;98899.00;5012202;28;20485;-69
2022/07/04 02:30:45;;;;;;;5.45;1.75;;;;;;;26.70;31.54;98892.81;5012081;28;20038;-69
2022/07/04 02:33:11;;;;;;;5.45;1.70;;;;;;;26.66;31.44;98891.63;4996075;28;20069;-67
2022/07/04 02:35:36;;;;;;;5.68;1.75;;;;;;;26.69;31.49;98901.88;4995435;28;20037;-67
2022/07/04 02:38:02;;;;;;;6.53;2.20;;;;;;;26.69;31.47;98904.56;5011651;28;20474;-69
2022/07/04 02:40:27;;;;;;;4.93;1.73;;;;;;;26.67;31.60;98907.47;4995320;28;20034;-67
2022/07/04 02:42:53;;;;;;;4.43;1.67;;;;;;;26.66;31.94;98905.00;5012578;28;20038;-68
2022/07/04 02:45:18;;;;;;;4.35;1.80;;;;;;;26.65;31.84;98909.53;4995599;28;20489;-68
2022/07/04 02:47:43;;;;;;;4.90;1.90;;;;;;;26.65;31.75;98906.88;5011758;28;20025;-69
2022/07/04 02:50:09;;;;;;;5.13;1.67;;;;;;;26.61;31.75;98904.81;4995560;28;20042;-67
2022/07/04 02:52:34;;;;;;;3.22;1.70;;;;;;;26.65;31.66;98909.53;4979262;28;20029;-67
2022/07/04 02:55:01;;;;;;;4.30;1.55;;;;;;;26.67;31.87;98912.81;4979571;28;20412;-68
2022/07/04 02:57:27;;;;;;;4.40;1.73;;;;;;;26.70;31.87;98908.91;4995468;28;20087;-69
2022/07/04 02:59:52;;;;;;;3.03;1.65;;;;;;;26.74;32.00;98903.91;4979255;28;20030;-68
2022/07/04 03:02:18;;;;;;;4.53;1.70;;;;;;;26.82;31.43;98901.81;5012013;28;20504;-69
2022/07/04 03:04:43;;;;;;;3.70;1.65;;;;;;;26.98;31.37;98912.97;4995483;28;20520;-68
2022/07/04 03:07:08;;;;;;;3.92;1.85;;;;;;;27.31;30.85;98903.84;4995293;28;20056;-68
2022/07/04 03:09:34;;;;;;;5.10;1.90;;;;;;;27.62;30.35;98908.25;5011459;28;20448;-68
2022/07/04 03:12:00;;;;;;;5.45;1.63;;;;;;;27.96;30.03;98909.53;4980502;28;20080;-69
2022/07/04 03:14:25;;;;;;;9.63;1.73;;;;;;;28.23;30.19;98901.13;5031723;28;20021;-67
2022/07/04 03:16:50;;;;;;;6.30;2.15;;;;;;;28.55;29.80;98911.59;5032286;28;20030;-67
2022/07/04 03:19:17;;;;;;;5.20;1.67;;;;;;;28.92;29.32;98916.00;5030975;28;20029;-67
2022/07/04 03:21:43;;;;;;;13.52;2.10;;;;;;;29.24;28.72;98905.75;5032230;28;20033;-69
2022/07/04 03:24:09;;;;;;;6.60;2.20;;;;;;;29.58;28.93;98905.94;4998262;28;20481;-68
2022/07/04 03:26:34;;;;;;;9.45;2.13;;;;;;;29.97;27.94;98908.91;5030982;28;20032;-67
2022/07/04 03:29:00;;;;;;;13.40;1.65;;;;;;;30.39;27.25;98910.50;5030887;28;20049;-67
2022/07/04 03:31:26;;;;;;;9.57;2.10;;;;;;;30.70;26.18;98908.31;5014565;28;20029;-71
2022/07/04 03:33:52;;;;;;;14.90;2.08;;;;;;;30.81;25.75;98902.84;4998160;28;20512;-68
2022/07/04 03:36:17;;;;;;;6.38;1.80;;;;;;;30.89;25.33;98911.59;5032268;28;20033;-69
2022/07/04 03:38:43;;;;;;;6.28;2.00;;;;;;;31.10;25.34;98918.94;5030789;28;20026;-70
2022/07/04 03:41:09;;;;;;;4.85;1.70;;;;;;;31.39;25.07;98910.69;5030082;28;20111;-74
2022/07/04 03:43:34;;;;;;;25.17;2.90;;;;;;;31.79;24.81;98906.94;4997166;28;20069;-72
2022/07/04 03:45:59;;;;;;;6.70;1.88;;;;;;;32.32;24.06;98906.44;5030400;28;20038;-70
2022/07/04 03:48:25;;;;;;;11.43;2.13;;;;;;;32.70;23.93;98910.03;5014573;28;20056;-70
2022/07/04 03:50:50;;;;;;;7.47;1.92;;;;;;;33.10;23.10;98901.41;5030460;28;20095;-70
2022/07/04 03:53:16;;;;;;;5.40;1.80;;;;;;;33.50;22.31;98897.31;4997635;28;20080;-70
2022/07/04 03:55:42;;;;;;;5.00;1.75;;;;;;;33.91;22.04;98907.50;5031023;28;20045;-70
2022/07/04 03:58:08;;;;;;;6.97;1.80;;;;;;;34.33;21.77;98901.13;5015578;28;20040;-70
2022/07/04 04:00:33;;;;;;;3.45;1.70;;;;;;;34.81;21.17;98902.75;5018085;28;20034;-71
2022/07/04 04:02:59;;;;;;;3.28;1.40;;;;;;;35.20;20.92;98905.66;5034246;28;20044;-71
2022/07/04 04:05:27;;;;;;;6.22;1.60;;;;;;;35.74;20.45;98900.63;5034709;28;20435;-70
2022/07/04 04:08:00;;;;;;;10.05;1.40;;;;;;;36.20;20.11;98894.97;5034231;28;20060;-70
2022/07/04 04:10:27;;;;;;;5.85;1.70;;;;;;;36.70;19.71;98901.09;5018816;28;20036;-69
2022/07/04 04:12:53;;;;;;;3.47;1.67;;;;;;;37.11;18.69;98897.22;5005895;28;20050;-70
2022/07/04 04:15:18;;;;;;;7.68;1.58;;;;;;;37.70;18.36;98899.84;5024983;28;20047;-72
2022/07/04 04:17:44;;;;;;;9.20;1.60;;;;;;;38.16;17.56;98896.50;5040526;28;20485;-71
2022/07/04 04:20:09;;;;;;;3.50;1.73;;;;;;;38.50;16.98;98907.13;5034277;28;20033;-70
2022/07/04 04:22:35;;;;;;;7.43;2.08;;;;;;;39.02;16.42;98909.00;5051978;28;20029;-71
2022/07/04 04:25:00;;;;;;;4.90;1.70;;;;;;;39.43;15.88;98908.25;5030249;28;20040;-71
2022/07/04 04:27:26;;;;;;;8.50;1.63;;;;;;;39.92;15.41;98909.41;5000402;28;20042;-71
2022/07/04 04:29:51;;;;;;;7.38;1.90;;;;;;;40.35;15.15;98908.16;4997532;28;20040;-70
2022/07/04 04:32:17;;;;;;;10.13;2.20;;;;;;;40.68;15.32;98916.94;5013664;28;20041;-71
2022/07/04 04:34:42;;;;;;;6.82;1.90;;;;;;;41.16;15.19;98915.44;5030307;28;20592;-71
2022/07/04 04:37:08;;;;;;;9.15;1.73;;;;;;;41.48;14.68;98921.72;5047143;28;20041;-71
2022/07/04 04:39:33;;;;;;;7.05;1.90;;;;;;;41.89;14.66;98926.00;5037281;28;20103;-71
2022/07/04 04:41:59;;;;;;;9.02;1.88;;;;;;;42.25;14.37;98930.38;5053613;28;20437;-70
2022/07/04 04:44:24;;;;;;;8.00;1.80;;;;;;;42.69;14.02;98924.06;5053630;28;20033;-71
2022/07/04 04:46:50;;;;;;;8.07;2.10;;;;;;;43.12;13.73;98934.94;5053547;28;20029;-71
2022/07/04 04:49:16;;;;;;;4.33;2.10;;;;;;;43.37;12.95;98944.19;5053551;28;20407;-71
2022/07/04 04:51:42;;;;;;;;;;;;;;;43.68;12.16;98934.84;5053942;28;20036;-71
2022/07/04 04:54:07;;;;;;;8.80;2.10;;;;;;;43.96;11.26;98939.03;5054857;28;19912;-70
2022/07/04 04:56:33;;;;;;;9.50;2.20;;;;;;;43.94;11.18;98938.59;5036807;28;20547;-71
2022/07/04 04:58:58;;;;;;;8.83;2.20;;;;;;;44.11;10.86;98946.69;5020220;28;20040;-71
2022/07/04 05:01:24;;;;;;;10.47;2.00;;;;;;;44.43;10.80;98942.38;5036694;28;20029;-72
2022/07/04 05:03:49;;;;;;;9.53;2.40;;;;;;;44.64;10.55;98951.78;5054460;28;20035;-71
2022/07/04 05:06:15;;;;;;;9.10;2.03;;;;;;;44.77;10.33;98953.41;5020315;28;20068;-70
2022/07/04 05:08:40;;;;;;;8.33;1.90;;;;;;;45.12;10.16;98944.75;5036330;28;20493;-70
2022/07/04 05:11:06;;;;;;;4.03;1.70;;;;;;;45.13;9.58;98949.13;5054034;28;20032;-70
2022/07/04 05:13:31;;;;;;;8.73;1.87;;;;;;;45.42;9.86;98959.19;5052940;28;20060;-70
2022/07/04 05:15:57;;;;;;;4.27;1.60;;;;;;;45.47;9.74;98961.69;5036296;28;20108;-71
2022/07/04 05:18:22;;;;;;;6.87;1.67;;;;;;;45.66;9.32;98954.78;5036023;28;20025;-69
2022/07/04 05:20:48;;;;;;;8.20;1.77;;;;;;;45.78;9.76;98954.78;5052786;28;20033;-70
2022/07/04 05:23:13;;;;;;;5.90;1.80;;;;;;;45.95;9.39;98958.44;5052756;28;20067;-70
2022/07/04 05:25:39;;;;;;;7.73;1.70;;;;;;;46.16;9.16;98953.56;5052981;28;20068;-70
2022/07/04 05:28:05;;;;;;;5.37;1.63;;;;;;;46.53;9.21;98961.69;5052574;28;20037;-71
2022/07/04 05:30:30;;;;;;;;;;;;;;;46.66;8.94;98964.44;5054263;28;20056;-73
2022/07/04 05:32:58;;;;;;;4.23;1.33;;;;;;;46.93;8.72;98960.81;5053220;28;19949;-70
2022/07/04 05:35:23;;;;;;;5.78;1.60;;;;;;;46.96;8.40;98958.53;5052558;28;20033;-71
2022/07/04 05:37:49;;;;;;;9.35;1.63;;;;;;;47.43;7.86;98964.06;5053949;28;20396;-69
2022/07/04 05:40:14;;;;;;;11.47;1.50;;;;;;;47.66;7.96;98964.16;5035653;28;20063;-71
2022/07/04 05:42:40;;;;;;;9.73;1.53;;;;;;;47.85;9.26;98970.16;5037760;28;20412;-74
2022/07/04 05:45:07;;;;;;;12.47;1.67;;;;;;;47.99;9.25;98968.47;5036609;28;20021;-70
2022/07/04 05:47:32;;;;;;;7.40;1.33;;;;;;;47.83;9.24;98964.97;5036349;28;20041;-70
2022/07/04 05:50:00;;;;;;;8.43;1.40;;;;;;;48.00;8.79;98970.09;5035680;28;20059;-69
2022/07/04 05:52:25;;;;;;;7.97;1.55;;;;;;;48.19;8.07;98971.28;5052468;28;20068;-70
2022/07/04 05:54:51;;;;;;;5.35;1.60;;;;;;;48.41;7.95;98966.19;5035545;28;20106;-69
2022/07/04 05:57:16;;;;;;;9.43;2.07;;;;;;;48.71;7.56;98971.91;5052069;28;20075;-70
2022/07/04 05:59:42;;;;;;;12.93;1.57;;;;;;;48.79;7.42;98972.84;5035550;28;20435;-70
2022/07/04 06:02:07;;;;;;;6.90;1.47;;;;;;;48.82;7.56;98969.34;5052158;28;20028;-69
2022/07/04 06:04:33;;;;;;;6.90;1.10;;;;;;;48.84;7.41;98969.81;5053199;28;20465;-69
2022/07/04 06:06:58;;;;;;;4.60;1.20;;;;;;;48.81;7.09;98967.78;5052176;28;20037;-69
2022/07/04 06:09:23;;;;;;;5.33;1.50;;;;;;;48.90;7.47;98971.06;5019000;28;20044;-70
2022/07/04 06:11:49;;;;;;;3.77;1.10;;;;;;;48.86;7.38;98965.47;5053410;28;20037;-70
2022/07/04 06:14:14;;;;;;;4.17;1.20;;;;;;;48.76;7.49;98960.53;5051604;28;20052;-69
2022/07/04 06:16:40;;;;;;;2.53;1.00;;;;;;;48.88;7.17;98968.66;5052983;28;20388;-69
2022/07/04 06:19:05;;;;;;;3.53;1.30;;;;;;;48.70;7.02;98954.50;5051856;28;20115;-71
2022/07/04 06:21:31;;;;;;;3.77;1.10;;;;;;;48.65;6.91;98951.25;5051289;28;20033;-72
2022/07/04 06:23:58;;;;;;;4.38;1.00;;;;;;;48.57;7.32;98961.38;5051746;28;20060;-71
2022/07/04 06:26:23;;;;;;;2.28;1.00;;;;;;;48.48;7.07;98952.50;5050537;28;20510;-72
2022/07/04 06:28:49;;;;;;;6.38;1.25;;;;;;;48.44;7.48;98949.69;5035045;28;20037;-73
2022/07/04 06:31:14;;;;;;;3.27;1.20;;;;;;;48.39;7.55;98947.16;5051904;28;20033;-74
2022/07/04 06:36:24;;;;;;;5.00;1.38;;;;;;;48.25;7.44;98946.88;5037492;28;20146;-71
2022/07/04 06:38:50;;;;;;;11.33;1.60;;;;;;;48.04;7.57;98939.75;5034915;28;20037;-71
2022/07/04 06:41:15;;;;;;;6.17;1.40;;;;;;;47.99;7.68;98943.56;5034775;28;20037;-71
2022/07/04 06:43:40;;;;;;;11.23;1.40;;;;;;;47.93;7.78;98944.22;5034698;28;20504;-71
2022/07/04 06:46:06;;;;;;;4.90;1.50;;;;;;;47.87;7.78;98938.16;5051178;28;20068;-71
2022/07/04 06:48:32;;;;;;;6.93;1.50;;;;;;;47.81;8.03;98939.66;5051529;28;20499;-71
2022/07/04 06:50:57;;;;;;;4.78;1.40;;;;;;;47.72;7.86;98941.81;5034703;28;20033;-72
2022/07/04 06:53:23;;;;;;;8.13;1.37;;;;;;;47.73;8.05;98946.16;5018352;28;20032;-70
2022/07/04 06:55:48;;;;;;;7.00;1.47;;;;;;;47.62;8.27;98941.19;5051922;28;20480;-71
2022/07/04 06:58:13;;;;;;;4.07;1.40;;;;;;;47.40;8.32;98934.38;5034655;28;20025;-71
2022/07/04 07:00:39;;;;;;;8.87;1.63;;;;;;;47.29;7.87;98941.56;5034928;28;20033;-71
2022/07/04 07:03:06;;;;;;;9.73;1.90;;;;;;;47.21;8.17;98934.25;5018414;28;20484;-71
2022/07/04 07:05:32;;;;;;;4.37;1.60;;;;;;;47.07;8.48;98929.22;5034921;28;20059;-71
2022/07/04 07:07:57;;;;;;;6.83;1.40;;;;;;;46.95;8.74;98935.59;5051244;28;20056;-71
2022/07/04 07:10:23;;;;;;;4.77;1.37;;;;;;;46.81;8.61;98926.94;5050913;28;20035;-71
2022/07/04 07:12:48;;;;;;;5.97;1.33;;;;;;;46.65;8.39;98924.16;5034301;28;20048;-72
2022/07/04 07:15:14;;;;;;;6.67;1.40;;;;;;;46.29;8.88;98920.41;5034432;28;20025;-71
2022/07/04 07:17:40;;;;;;;5.30;1.80;;;;;;;46.23;8.71;98914.34;5034725;28;20479;-72
2022/07/04 07:20:06;;;;;;;5.97;1.60;;;;;;;46.08;8.86;98909.56;5017791;28;20036;-71
2022/07/04 07:22:32;;;;;;;6.97;1.52;;;;;;;46.01;9.45;98908.19;5034312;28;20032;-72
2022/07/04 07:24:57;;;;;;;8.33;1.57;;;;;;;45.92;9.10;98904.78;5034565;28;20041;-72
2022/07/04 07:27:23;;;;;;;9.73;1.80;;;;;;;45.80;9.26;98897.34;5034162;28;20031;-71
2022/07/04 07:29:48;;;;;;;4.30;1.30;;;;;;;45.69;9.58;98893.44;5034248;28;20476;-71
2022/07/04 07:32:13;;;;;;;9.03;1.70;;;;;;;45.41;9.79;98890.63;5017924;28;20041;-72
2022/07/04 07:34:40;;;;;;;11.10;1.60;;;;;;;45.30;10.07;98893.81;5038157;28;20040;-71
2022/07/04 07:37:05;;;;;;;11.25;1.88;;;;;;;45.11;10.09;98894.38;5022480;28;20041;-70
2022/07/04 07:39:31;;;;;;;6.87;1.60;;;;;;;45.00;10.27;98895.19;5054802;28;20033;-71
2022/07/04 07:41:56;;;;;;;4.93;1.43;;;;;;;44.84;10.28;98895.84;5038206;28;20496;-71
2022/07/04 07:44:22;;;;;;;3.53;1.60;;;;;;;44.78;10.66;98888.94;5056115;28;20025;-70
2022/07/04 07:46:47;;;;;;;9.47;1.43;;;;;;;44.71;10.53;98889.53;5054750;28;20534;-72
2022/07/04 07:49:13;;;;;;;9.87;1.77;;;;;;;44.65;11.13;98885.38;5021530;28;20029;-71
2022/07/04 07:51:38;;;;;;;4.07;1.40;;;;;;;44.38;10.95;98884.81;5054698;28;20036;-70
2022/07/04 07:54:04;;;;;;;7.70;1.60;;;;;;;44.32;11.00;98880.66;5037794;28;20412;-72
2022/07/04 07:56:29;;;;;;;6.50;1.50;;;;;;;44.20;11.01;98884.19;5037735;28;20025;-71
2022/07/04 07:58:55;;;;;;;7.40;1.43;;;;;;;44.08;11.14;98889.63;5037936;28;20033;-70
2022/07/04 08:01:20;;;;;;;7.93;1.50;;;;;;;44.01;11.18;98887.41;5054936;28;20048;-70
2022/07/04 08:06:30;;;;;;;5.95;1.67;;;;;;;43.67;11.21;98886.50;5054568;28;20032;-70
2022/07/04 08:08:56;;;;;;;4.83;1.63;;;;;;;43.57;11.50;98883.34;5037707;28;20481;-71
2022/07/04 08:11:21;;;;;;;8.57;1.87;;;;;;;43.42;11.52;98887.47;5037794;28;20102;-71
2022/07/04 08:13:47;;;;;;;8.30;1.70;;;;;;;43.19;11.48;98887.72;5037131;28;20508;-71
2022/07/04 08:16:12;;;;;;;9.67;1.57;;;;;;;43.15;11.87;98887.59;5037525;28;20029;-71
2022/07/04 08:18:38;;;;;;;14.97;1.83;;;;;;;43.14;11.72;98890.66;5021296;28;20032;-70
2022/07/04 08:21:03;;;;;;;10.17;1.70;;;;;;;43.11;12.25;98888.56;5037562;28;20468;-70
2022/07/04 08:23:30;;;;;;;6.10;1.73;;;;;;;43.07;11.78;98891.19;5037055;28;20511;-71
2022/07/04 08:25:55;;;;;;;9.02;1.50;;;;;;;42.95;11.73;98885.53;5053820;28;20086;-71
2022/07/04 08:28:21;;;;;;;8.27;1.60;;;;;;;42.78;12.22;98886.41;5037817;28;20037;-71
2022/07/04 08:30:46;;;;;;;3.47;1.50;;;;;;;42.56;11.76;98873.72;5021025;28;20040;-71
2022/07/04 08:33:12;;;;;;;5.70;1.40;;;;;;;42.47;11.92;98870.97;5053926;28;20481;-71
2022/07/04 08:35:37;;;;;;;7.27;1.70;;;;;;;42.37;12.03;98874.06;5037534;28;20128;-71
2022/07/04 08:38:03;;;;;;;5.43;1.60;;;;;;;42.13;12.08;98872.66;5053417;28;20416;-71
2022/07/04 08:40:29;;;;;;;5.70;1.50;;;;;;;42.06;12.34;98864.88;5054000;28;20036;-71
2022/07/04 08:42:55;;;;;;;4.93;1.40;;;;;;;41.91;12.14;98873.59;5036872;28;20106;-71
2022/07/04 08:45:28;;;;;;;8.15;1.80;;;;;;;41.75;12.54;98874.06;5036481;28;20037;-71
2022/07/04 08:48:06;;;;;;;2.95;1.25;;;;;;;41.50;12.65;98872.09;5020788;28;20458;-70
2022/07/04 08:50:32;;;;;;;4.10;1.40;;;;;;;41.41;12.58;98877.53;5036879;28;20033;-72
2022/07/04 08:53:03;;;;;;;7.97;1.80;;;;;;;41.29;12.33;98882.81;5053710;28;20032;-71
2022/07/04 08:58:31;;;;;;;4.68;1.58;;;;;;;41.27;12.78;98872.16;5039835;28;20035;-71
2022/07/04 09:01:11;;;;;;;6.80;1.48;;;;;;;41.15;12.56;98877.41;5039395;28;20032;-71
2022/07/04 09:03:36;;;;;;;9.45;1.27;;;;;;;41.06;12.19;98882.88;5037515;28;20029;-71
2022/07/04 09:06:02;;;;;;;7.55;1.42;;;;;;;40.68;12.42;98880.59;5036598;28;20029;-71
2022/07/04 09:08:28;;;;;;;5.10;1.57;;;;;;;40.28;12.54;98873.06;5053261;28;20033;-71
2022/07/04 09:10:53;;;;;;;5.35;1.48;;;;;;;39.91;12.78;98876.91;5036495;28;20499;-71
2022/07/04 09:13:19;;;;;;;4.53;1.55;;;;;;;39.62;13.10;98881.63;5052789;28;20124;-72
2022/07/04 09:15:49;;;;;;;5.47;1.60;;;;;;;39.53;13.10;98885.41;5019831;28;20484;-72
2022/07/04 09:18:29;;;;;;;8.00;1.70;;;;;;;39.42;12.83;98871.91;5036642;28;20033;-71
2022/07/04 09:20:56;;;;;;;3.72;1.60;;;;;;;39.07;13.42;98874.25;5053023;28;20563;-71
2022/07/04 09:23:27;;;;;;;4.65;1.50;;;;;;;38.96;13.72;98889.19;5036751;28;20037;-71
2022/07/04 09:26:09;;;;;;;5.38;1.58;;;;;;;38.58;13.36;98881.09;5036783;28;20056;-70
2022/07/04 09:28:34;;;;;;;5.47;1.30;;;;;;;38.50;13.76;98877.13;5052934;28;20033;-71
2022/07/04 09:31:00;;;;;;;4.28;1.40;;;;;;;38.53;13.68;98873.81;5036430;28;20041;-71
2022/07/04 09:33:58;;;;;;;3.70;1.50;;;;;;;38.40;13.80;98874.59;5053071;28;20042;-70
2022/07/04 09:36:26;;;;;;;5.53;1.45;;;;;;;38.12;14.06;98869.00;5035690;28;20029;-71
2022/07/04 09:39:18;;;;;;;3.15;1.30;;;;;;;37.89;14.07;98873.44;5036498;28;20082;-71
2022/07/04 09:41:59;;;;;;;6.80;1.80;;;;;;;37.76;14.39;98864.06;5036055;28;20033;-71
2022/07/04 09:44:44;;;;;;;5.00;1.40;;;;;;;37.59;14.03;98861.00;5052641;28;20032;-71
2022/07/04 09:47:20;;;;;;;3.88;1.42;;;;;;;37.51;14.38;98864.38;5022374;28;20419;-70
2022/07/04 09:50:02;;;;;;;2.28;1.20;;;;;;;37.49;14.02;98875.56;5036176;28;20048;-70
2022/07/04 09:52:29;;;;;;;2.92;1.30;;;;;;;37.38;14.08;98855.81;5053623;28;20033;-72
2022/07/04 09:55:07;;;;;;;6.00;1.65;;;;;;;37.33;14.11;98858.63;5035596;28;20029;-71
2022/07/04 09:57:32;;;;;;;2.80;1.45;;;;;;;37.35;14.12;98852.88;5036293;28;20029;-70
2022/07/04 10:00:27;;;;;;;4.72;1.20;;;;;;;37.21;14.21;98863.63;5035627;28;20523;-71
2022/07/04 10:02:52;;;;;;;2.85;1.30;;;;;;;37.05;13.91;98852.09;5052218;28;20025;-72
2022/07/04 10:05:22;;;;;;;5.72;1.20;;;;;;;36.96;13.93;98860.13;5035551;28;20061;-71
2022/07/04 10:07:48;;;;;;;4.88;1.40;;;;;;;36.80;13.82;98853.19;5035886;28;20420;-72
2022/07/04 10:10:44;;;;;;;1.52;1.08;;;;;;;36.74;13.63;98849.72;5035384;28;20029;-72
2022/07/04 10:13:10;;;;;;;;;;;;;;;36.70;13.74;98848.63;5052283;28;20545;-71
2022/07/04 10:15:40;;;;;;;5.00;1.45;;;;;;;36.60;13.31;98846.03;5051982;28;19917;-71
2022/07/04 10:18:06;;;;;;;5.40;1.30;;;;;;;36.52;13.38;98844.75;5035634;28;20064;-71
2022/07/04 10:20:32;;;;;;;4.80;1.20;;;;;;;36.40;13.35;98843.22;5035803;28;20396;-71
2022/07/04 10:22:57;;;;;;;5.18;1.30;;;;;;;36.36;13.35;98849.50;5035288;28;20037;-71
2022/07/04 10:25:23;;;;;;;3.30;1.20;;;;;;;36.21;13.63;98839.50;5034921;28;20550;-71
2022/07/04 10:27:51;;;;;;;3.42;1.40;;;;;;;36.18;13.65;98840.91;5051669;28;20036;-71
2022/07/04 10:30:17;;;;;;;;;;;;;;;36.00;13.48;98839.66;5019498;28;20396;-71
2022/07/04 10:32:45;;;;;;;10.30;1.50;;;;;;;35.90;13.73;98839.75;5051509;28;19912;-72
2022/07/04 10:35:15;;;;;;;3.40;1.20;;;;;;;35.79;13.38;98839.00;5035391;28;20045;-72
2022/07/04 10:38:00;;;;;;;4.18;1.10;;;;;;;35.71;13.04;98846.88;5034886;28;20520;-71
2022/07/04 10:40:39;;;;;;;4.38;1.10;;;;;;;35.65;13.45;98832.53;5051390;28;20051;-72
2022/07/04 10:43:25;;;;;;;5.55;1.23;;;;;;;35.56;13.60;98836.94;5034690;28;20124;-71
2022/07/04 10:45:51;;;;;;;3.13;1.20;;;;;;;35.36;12.89;98826.97;5035581;28;20127;-71
2022/07/04 10:48:23;;;;;;;2.97;1.30;;;;;;;35.17;12.86;98840.31;5035248;28;20032;-71
2022/07/04 10:51:05;;;;;;;4.40;1.27;;;;;;;35.05;13.14;98827.06;5018601;28;20403;-71
2022/07/04 10:53:31;;;;;;;2.85;1.20;;;;;;;34.97;13.12;98825.72;5034964;28;20033;-72
2022/07/04 10:56:15;;;;;;;6.65;1.10;;;;;;;34.99;13.24;98815.41;5018274;28;20044;-71
2022/07/04 10:58:42;;;;;;;5.45;1.20;;;;;;;35.00;13.36;98817.03;5051531;28;20033;-74
2022/07/04 11:01:11;;;;;;;7.53;1.27;;;;;;;34.90;13.55;98803.50;5018104;28;20121;-70
2022/07/04 11:03:53;;;;;;;3.35;1.10;;;;;;;34.70;13.35;98810.59;5034393;28;20037;-70
2022/07/04 11:06:37;;;;;;;3.75;1.27;;;;;;;34.69;13.90;98810.84;5034551;28;20017;-72
2022/07/04 11:09:12;;;;;;;3.95;1.40;;;;;;;34.67;13.79;98800.28;5051181;28;20075;-71
2022/07/04 11:11:59;;;;;;;3.00;1.05;;;;;;;34.68;13.92;98799.22;5052362;28;20028;-70
2022/07/04 11:14:44;;;;;;;4.35;1.27;;;;;;;34.68;13.97;98801.09;5034806;28;20045;-72
2022/07/04 11:17:41;;;;;;;3.35;1.25;;;;;;;34.70;13.70;98813.28;5034292;28;20033;-70
2022/07/04 11:20:07;;;;;;;3.60;1.45;;;;;;;34.53;13.87;98794.63;4994062;28;20068;-71
2022/07/04 11:22:34;;;;;;;3.78;1.20;;;;;;;34.43;14.38;98798.16;4993951;28;20481;-72
2022/07/04 11:24:59;;;;;;;5.68;1.30;;;;;;;34.26;14.43;98781.38;4993996;28;20030;-70
2022/07/04 11:27:25;;;;;;;4.25;1.00;;;;;;;34.23;14.27;98782.72;4977691;28;20053;-71
2022/07/04 11:29:54;;;;;;;3.60;1.00;;;;;;;34.31;14.08;98796.81;4961506;28;20050;-70
2022/07/04 11:32:20;;;;;;;7.13;1.13;;;;;;;34.34;14.44;98786.22;4962015;28;20030;-70
2022/07/04 11:34:46;;;;;;;3.67;1.10;;;;;;;34.38;14.83;98787.31;4993682;28;20088;-71
2022/07/04 11:37:12;;;;;;;3.92;1.30;;;;;;;34.33;14.82;98787.34;4977718;28;20101;-70
2022/07/04 11:39:37;;;;;;;3.92;1.10;;;;;;;34.32;14.27;98780.28;4961436;28;20033;-72
2022/07/04 11:45:05;;;;;;;5.18;1.65;;;;;;;34.15;14.73;98777.00;4982824;28;20088;-71
2022/07/04 11:47:39;;;;;;;4.05;1.20;;;;;;;34.12;14.91;98769.44;4996322;28;20022;-70
2022/07/04 11:50:07;;;;;;;4.65;1.30;;;;;;;34.09;14.70;98768.06;4993863;28;20436;-71
2022/07/04 11:52:42;;;;;;;5.82;1.40;;;;;;;34.15;14.75;98769.69;4993942;28;20034;-72
2022/07/04 11:55:15;;;;;;;4.43;1.25;;;;;;;34.07;15.13;98765.63;5005823;28;20476;-72